createdAt,value
2018-04-13T00:00:51.675Z,2.60
2018-04-13T00:03:21.795Z,2.00
2018-04-13T00:05:52.691Z,2.57
2018-04-13T00:08:23.677Z,2.07
2018-04-13T00:10:53.774Z,2.70
2018-04-13T00:13:24.721Z,2.20
2018-04-13T00:15:55.713Z,2.20
2018-04-13T00:18:26.586Z,1.97
2018-04-13T00:20:57.466Z,2.40
2018-04-13T00:23:27.621Z,2.53
2018-04-13T00:25:58.600Z,2.57
2018-04-13T00:28:28.686Z,2.67
2018-04-13T00:30:59.544Z,2.10
2018-04-13T00:33:29.632Z,2.57
2018-04-13T00:36:00.616Z,2.70
2018-04-13T00:38:30.870Z,2.30
2018-04-13T00:41:00.972Z,3.30
2018-04-13T00:43:31.888Z,2.77
2018-04-13T00:46:02.106Z,2.43
2018-04-13T00:48:32.288Z,2.73
2018-04-13T00:51:03.495Z,2.50
2018-04-13T00:53:34.489Z,2.67
2018-04-13T00:56:05.437Z,2.50
2018-04-13T00:58:35.592Z,2.57
2018-04-13T01:01:05.703Z,2.47
2018-04-13T01:03:36.711Z,2.33
2018-04-13T01:06:06.727Z,2.30
2018-04-13T01:08:37.795Z,1.97
2018-04-13T01:11:07.938Z,2.70
2018-04-13T01:13:38.957Z,2.73
2018-04-13T01:16:09.104Z,2.67
2018-04-13T01:18:40.050Z,2.33
2018-04-13T01:21:10.158Z,2.50
2018-04-13T01:23:40.266Z,2.73
2018-04-13T01:26:10.355Z,2.27
2018-04-13T01:28:40.433Z,2.23
2018-04-13T01:31:10.506Z,2.33
2018-04-13T01:33:40.818Z,2.37
2018-04-13T01:36:10.954Z,2.87
2018-04-13T01:38:41.032Z,3.03
2018-04-13T01:41:11.972Z,2.60
2018-04-13T01:43:42.818Z,2.30
2018-04-13T01:46:12.970Z,3.13
2018-04-13T01:48:43.068Z,2.40
2018-04-13T01:51:13.967Z,2.60
2018-04-13T01:53:44.015Z,2.40
2018-04-13T01:56:15.080Z,2.43
2018-04-13T01:58:45.215Z,2.20
2018-04-13T02:01:15.342Z,2.67
2018-04-13T02:03:46.355Z,2.13
2018-04-13T02:06:17.350Z,2.30
2018-04-13T02:08:48.186Z,2.37
2018-04-13T02:11:19.011Z,3.03
2018-04-13T02:13:49.190Z,2.27
2018-04-13T02:16:19.323Z,2.13
2018-04-13T02:18:49.518Z,2.40
2018-04-13T02:21:19.549Z,3.07
2018-04-13T02:23:51.359Z,2.17
2018-04-13T02:26:21.538Z,2.57
2018-04-13T02:28:52.566Z,2.77
2018-04-13T02:31:22.661Z,2.93
2018-04-13T02:33:52.802Z,2.80
2018-04-13T02:36:23.416Z,2.60
2018-04-13T02:38:53.533Z,2.30
2018-04-13T02:41:23.637Z,1.80
2018-04-13T02:43:54.614Z,1.90
2018-04-13T02:46:25.537Z,2.70
2018-04-13T02:48:56.394Z,2.17
2018-04-13T02:51:26.580Z,2.17
2018-04-13T02:53:56.641Z,1.47
2018-04-13T02:56:26.840Z,2.10
2018-04-13T02:58:57.983Z,2.97
2018-04-13T03:01:29.001Z,2.03
2018-04-13T03:03:59.046Z,2.30
2018-04-13T03:06:29.951Z,2.80
2018-04-13T03:09:01.323Z,2.27
2018-04-13T03:11:31.439Z,2.20
2018-04-13T03:14:02.530Z,2.37
2018-04-13T03:16:32.649Z,2.17
2018-04-13T03:19:03.578Z,1.80
2018-04-13T03:21:33.657Z,2.13
2018-04-13T03:24:03.707Z,2.03
2018-04-13T03:26:33.791Z,1.87
2018-04-13T03:29:04.899Z,2.10
2018-04-13T03:31:34.993Z,2.07
2018-04-13T03:34:05.069Z,2.40
2018-04-13T03:36:35.131Z,2.13
2018-04-13T03:39:06.161Z,1.90
2018-04-13T03:41:36.441Z,2.23
2018-04-13T03:44:06.568Z,2.10
2018-04-13T03:46:36.784Z,2.20
2018-04-13T03:49:07.071Z,1.80
2018-04-13T03:51:37.187Z,2.00
2018-04-13T03:54:08.409Z,2.70
2018-04-13T03:56:38.478Z,2.53
2018-04-13T03:59:08.591Z,1.90
2018-04-13T04:01:39.491Z,2.23
2018-04-13T04:04:09.554Z,2.07
2018-04-13T04:06:40.523Z,1.60
2018-04-13T04:09:10.754Z,1.93
2018-04-13T04:11:40.868Z,2.03
2018-04-13T04:14:10.954Z,1.63
2018-04-13T04:16:42.091Z,2.23
2018-04-13T04:19:12.898Z,2.17
2018-04-13T04:22:00.654Z,1.80
2018-04-13T04:24:49.264Z,2.37
2018-04-13T04:27:19.297Z,2.03
2018-04-13T04:29:49.373Z,1.73
2018-04-13T04:32:20.327Z,1.90
2018-04-13T04:34:50.429Z,2.03
2018-04-13T04:37:20.455Z,2.00
2018-04-13T04:39:50.553Z,1.90
2018-04-13T04:42:22.499Z,1.90
2018-04-13T04:44:53.474Z,1.90
2018-04-13T04:47:23.763Z,1.73
2018-04-13T04:49:54.405Z,1.73
2018-04-13T04:52:25.852Z,2.03
2018-04-13T04:54:57.989Z,2.17
2018-04-13T04:57:29.108Z,2.03
2018-04-13T05:00:00.259Z,1.87
2018-04-13T05:02:31.272Z,1.70
2018-04-13T05:05:01.495Z,2.27
2018-04-13T05:07:32.541Z,2.10
2018-04-13T05:10:02.658Z,2.40
2018-04-13T05:12:33.617Z,2.93
2018-04-13T05:15:03.867Z,2.23
2018-04-13T05:17:33.982Z,2.03
2018-04-13T05:20:04.157Z,1.90
2018-04-13T05:22:34.353Z,2.30
2018-04-13T05:25:04.507Z,2.00
2018-04-13T05:27:36.152Z,0.90
2018-04-13T05:30:06.226Z,0.80
2018-04-13T05:32:37.093Z,1.10
2018-04-13T05:35:07.246Z,1.30
2018-04-13T05:37:38.502Z,0.70
2018-04-13T05:40:08.566Z,1.17
2018-04-13T05:42:39.552Z,1.20
2018-04-13T05:45:09.550Z,0.87
2018-04-13T05:47:40.442Z,0.90
2018-04-13T05:50:10.462Z,1.10
2018-04-13T05:52:41.276Z,0.77
2018-04-13T05:55:12.747Z,0.83
2018-04-13T05:57:42.926Z,0.97
2018-04-13T06:00:13.902Z,0.80
2018-04-13T06:02:44.817Z,0.83
2018-04-13T06:05:15.702Z,0.50
2018-04-13T06:07:46.382Z,0.97
2018-04-13T06:10:17.255Z,0.70
2018-04-13T06:12:48.092Z,0.90
2018-04-13T06:15:18.924Z,0.83
2018-04-13T06:17:49.787Z,0.80
2018-04-13T06:20:19.809Z,0.67
2018-04-13T06:22:51.203Z,0.83
2018-04-13T06:25:21.440Z,1.00
2018-04-13T06:27:52.362Z,1.10
2018-04-13T06:30:22.475Z,0.63
2018-04-13T06:32:53.444Z,0.77
2018-04-13T06:35:23.618Z,0.80
2018-04-13T06:37:54.919Z,0.93
2018-04-13T06:40:25.108Z,0.50
2018-04-13T06:42:56.282Z,0.53
2018-04-13T06:45:27.162Z,0.80
2018-04-13T06:47:57.225Z,0.70
2018-04-13T06:50:28.119Z,0.63
2018-04-13T06:52:58.245Z,0.30
2018-04-13T06:55:28.310Z,0.67
2018-04-13T06:57:59.216Z,0.50
2018-04-13T07:00:29.407Z,0.40
2018-04-13T07:02:59.518Z,0.40
2018-04-13T07:05:30.866Z,0.90
2018-04-13T07:08:00.979Z,0.83
2018-04-13T07:10:31.146Z,0.50
2018-04-13T07:13:02.100Z,0.60
2018-04-13T07:15:32.260Z,1.10
2018-04-13T07:18:03.098Z,1.40
2018-04-13T07:20:33.216Z,1.60
2018-04-13T07:23:04.302Z,0.83
2018-04-13T07:25:34.568Z,1.60
2018-04-13T07:28:04.676Z,1.50
2018-04-13T07:30:35.666Z,1.10
2018-04-13T07:33:07.281Z,1.13
2018-04-13T07:35:36.869Z,1.50
2018-04-13T07:38:07.006Z,1.93
2018-04-13T07:40:38.135Z,1.73
2018-04-13T07:43:08.217Z,1.27
2018-04-13T07:45:39.218Z,1.50
2018-04-13T07:48:09.348Z,0.93
2018-04-13T07:50:40.226Z,1.27
2018-04-13T07:53:10.403Z,1.37
2018-04-13T07:55:41.236Z,1.20
2018-04-13T07:58:12.518Z,1.47
2018-04-13T08:00:43.006Z,1.27
2018-04-13T08:03:13.933Z,1.40
2018-04-13T08:05:44.826Z,1.43
2018-04-13T08:08:14.945Z,1.70
2018-04-13T08:10:45.874Z,2.43
2018-04-13T08:13:17.131Z,1.80
2018-04-13T08:15:47.312Z,1.57
2018-04-13T08:18:18.348Z,1.70
2018-04-13T08:20:48.496Z,1.90
2018-04-13T08:23:18.660Z,2.13
2018-04-13T08:25:48.843Z,1.50
2018-04-13T08:28:18.994Z,1.20
2018-04-13T08:30:50.449Z,1.17
2018-04-13T08:33:20.671Z,1.77
2018-04-13T08:35:51.568Z,1.17
2018-04-13T08:38:22.587Z,1.00
2018-04-13T08:40:52.746Z,1.80
2018-04-13T08:43:22.958Z,2.37
2018-04-13T08:45:53.092Z,2.20
2018-04-13T08:48:24.026Z,2.73
2018-04-13T08:50:56.887Z,1.40
2018-04-13T08:53:27.687Z,2.00
2018-04-13T08:55:57.846Z,1.30
2018-04-13T08:58:27.923Z,1.53
2018-04-13T09:00:58.506Z,1.87
2018-04-13T09:03:29.749Z,1.70
2018-04-13T09:05:59.917Z,1.47
2018-04-13T09:08:30.837Z,1.43
2018-04-13T09:11:01.789Z,1.20
2018-04-13T09:13:33.271Z,1.00
2018-04-13T09:16:03.414Z,1.43
2018-04-13T09:18:34.390Z,0.90
2018-04-13T09:21:05.309Z,0.90
2018-04-13T09:23:35.453Z,4.43
2018-04-13T09:26:06.357Z,0.80
2018-04-13T09:28:37.292Z,0.57
2018-04-13T09:31:07.605Z,0.50
2018-04-13T09:33:37.972Z,0.60
2018-04-13T09:36:09.232Z,0.40
2018-04-13T09:38:40.348Z,0.40
2018-04-13T09:41:11.302Z,0.50
2018-04-13T09:43:42.217Z,0.50
2018-04-13T09:46:13.246Z,0.20
2018-04-13T09:48:43.377Z,0.23
2018-04-13T09:51:14.352Z,0.40
2018-04-13T09:53:45.306Z,0.50
2018-04-13T09:56:16.290Z,0.77
2018-04-13T09:58:46.387Z,0.40
2018-04-13T10:01:17.138Z,0.50
2018-04-13T10:03:50.208Z,0.70
2018-04-13T10:06:20.336Z,0.30
2018-04-13T10:08:50.448Z,0.10
2018-04-13T10:11:20.690Z,0.27
2018-04-13T10:13:51.653Z,0.37
2018-04-13T10:16:22.562Z,0.23
2018-04-13T10:18:52.727Z,0.10
2018-04-13T10:21:23.664Z,0.20
2018-04-13T10:23:54.651Z,0.20
2018-04-13T10:26:25.127Z,0.33
2018-04-13T10:28:55.269Z,0.27
2018-04-13T10:31:26.213Z,0.20
2018-04-13T10:33:57.388Z,0.40
2018-04-13T10:36:28.864Z,0.23
2018-04-13T10:38:59.903Z,0.40
2018-04-13T10:41:29.998Z,0.50
2018-04-13T10:44:01.020Z,0.37
2018-04-13T10:46:31.384Z,0.40
2018-04-13T10:49:02.324Z,0.57
2018-04-13T10:51:33.272Z,0.20
2018-04-13T10:54:03.458Z,0.40
2018-04-13T10:56:33.608Z,0.30
2018-04-13T10:59:04.559Z,0.20
2018-04-13T11:01:36.341Z,0.20
2018-04-13T11:04:07.886Z,0.30
2018-04-13T11:06:38.767Z,0.40
2018-04-13T11:09:09.701Z,0.30
2018-04-13T11:11:39.808Z,0.60
2018-04-13T11:14:11.150Z,1.10
2018-04-13T11:16:41.323Z,0.30
2018-04-13T11:19:12.422Z,0.23
2018-04-13T11:21:42.601Z,0.53
2018-04-13T11:24:13.458Z,0.70
2018-04-13T11:26:43.625Z,0.23
2018-04-13T11:29:13.715Z,0.40
2018-04-13T11:31:43.793Z,0.20
2018-04-13T11:34:14.674Z,0.47
2018-04-13T11:36:44.883Z,0.30
2018-04-13T11:39:15.043Z,0.30
2018-04-13T11:41:45.939Z,0.33
2018-04-13T11:44:16.154Z,0.30
2018-04-13T11:46:46.269Z,0.20
2018-04-13T11:49:16.403Z,0.20
2018-04-13T11:51:46.499Z,0.10
2018-04-13T11:54:16.658Z,0.17
2018-04-13T11:56:46.820Z,0.20
2018-04-13T11:59:16.996Z,0.30
2018-04-13T12:01:47.169Z,0.10
2018-04-13T12:04:18.101Z,0.30
2018-04-13T12:06:49.072Z,0.30
2018-04-13T12:09:19.241Z,0.10
2018-04-13T12:11:50.284Z,0.03
2018-04-13T12:14:21.232Z,0.20
2018-04-13T12:16:52.193Z,0.20
2018-04-13T12:19:23.295Z,0.20
2018-04-13T12:21:54.406Z,0.20
2018-04-13T12:24:24.538Z,0.10
2018-04-13T12:26:55.486Z,0.10
2018-04-13T12:29:25.628Z,0.00
2018-04-13T12:31:56.614Z,0.40
2018-04-13T12:34:26.867Z,0.20
2018-04-13T12:36:57.066Z,0.20
2018-04-13T12:39:27.238Z,0.20
2018-04-13T12:41:58.119Z,0.20
2018-04-13T12:44:28.215Z,0.20
2018-04-13T12:46:59.090Z,0.20
2018-04-13T12:49:29.920Z,0.20
2018-04-13T12:52:00.998Z,0.30
2018-04-13T12:54:32.015Z,0.20
2018-04-13T12:57:02.877Z,0.23
2018-04-13T12:59:33.747Z,0.20
2018-04-13T13:02:03.868Z,0.20
2018-04-13T13:04:34.824Z,0.30
2018-04-13T13:07:05.014Z,0.13
2018-04-13T13:09:35.947Z,0.20
2018-04-13T13:12:06.098Z,0.20
2018-04-13T13:14:37.089Z,0.03
2018-04-13T13:17:08.016Z,0.10
2018-04-13T13:19:39.240Z,0.20
2018-04-13T13:22:10.693Z,0.20
2018-04-13T13:24:42.704Z,0.13
2018-04-13T13:27:14.294Z,0.30
2018-04-13T13:29:45.879Z,0.20
2018-04-13T13:50:44.751Z,0.10
2018-04-13T13:53:15.526Z,0.20
2018-04-13T13:55:46.145Z,0.10
2018-04-13T13:58:16.125Z,0.20
2018-04-13T14:00:47.147Z,0.20
2018-04-13T14:03:17.206Z,0.20
2018-04-13T14:05:47.949Z,0.30
2018-04-13T14:08:17.972Z,0.10
2018-04-13T14:10:47.967Z,0.10
2018-04-13T14:13:18.725Z,0.30
2018-04-13T14:15:48.709Z,0.30
2018-04-13T14:18:19.449Z,0.10
2018-04-13T14:20:50.212Z,0.20
2018-04-13T14:23:20.224Z,0.30
2018-04-13T14:25:51.265Z,0.60
2018-04-13T14:28:22.343Z,0.10
2018-04-13T14:30:52.386Z,0.17
2018-04-13T14:33:23.128Z,0.50
2018-04-13T14:35:53.869Z,0.10
2018-04-13T14:38:24.757Z,0.20
2018-04-13T14:40:54.773Z,0.20
2018-04-13T14:43:24.747Z,0.13
2018-04-13T14:45:55.734Z,0.27
2018-04-13T14:48:25.701Z,0.10
2018-04-13T14:50:55.743Z,0.20
2018-04-13T14:53:26.503Z,0.10
2018-04-13T14:55:56.517Z,0.10
2018-04-13T14:58:27.342Z,0.10
2018-04-13T15:00:57.357Z,0.10
2018-04-13T15:03:27.350Z,0.27
2018-04-13T15:05:58.072Z,0.13
2018-04-13T15:08:28.831Z,0.10
2018-04-13T15:10:58.815Z,0.30
2018-04-13T15:13:28.860Z,0.37
2018-04-13T15:15:58.854Z,0.30
2018-04-13T15:18:29.707Z,0.27
2018-04-13T15:21:00.821Z,0.20
2018-04-13T15:23:30.738Z,0.30
2018-04-13T15:26:00.749Z,0.20
2018-04-13T15:28:31.593Z,0.20
2018-04-13T15:31:02.344Z,0.13
2018-04-13T15:33:33.954Z,0.03
2018-04-13T15:36:04.865Z,0.20
2018-04-13T15:38:34.813Z,0.50
2018-04-13T15:41:04.804Z,0.30
2018-04-13T15:43:35.727Z,0.10
2018-04-13T15:46:06.754Z,0.20
2018-04-13T15:48:37.443Z,0.60
2018-04-13T15:51:08.233Z,0.40
2018-04-13T15:53:38.192Z,0.20
2018-04-13T15:56:08.262Z,0.43
2018-04-13T15:58:38.926Z,0.20
2018-04-13T16:01:09.916Z,0.30
2018-04-13T16:03:40.805Z,0.20
2018-04-13T16:06:10.685Z,0.27
2018-04-13T16:08:40.705Z,0.03
2018-04-13T16:11:11.767Z,0.33
2018-04-13T16:13:41.876Z,0.17
2018-04-13T16:16:12.749Z,0.10
2018-04-13T16:18:43.857Z,0.20
2018-04-13T16:21:13.817Z,0.10
2018-04-13T16:23:44.593Z,0.50
2018-04-13T16:26:14.582Z,0.10
2018-04-13T16:28:44.574Z,0.10
2018-04-13T16:31:14.584Z,0.50
2018-04-13T16:33:46.247Z,2.43
2018-04-13T16:36:17.469Z,2.50
2018-04-13T16:38:48.560Z,2.27
2018-04-13T16:41:19.310Z,1.30
2018-04-13T16:43:50.425Z,0.47
2018-04-13T16:46:21.500Z,0.47
2018-04-13T16:48:51.476Z,0.43
2018-04-13T16:51:22.212Z,0.60
2018-04-13T16:53:52.241Z,0.40
2018-04-13T16:56:22.288Z,0.40
2018-04-13T16:58:52.353Z,0.50
2018-04-13T17:01:22.419Z,0.20
2018-04-13T17:03:52.404Z,0.20
2018-04-13T17:06:23.277Z,0.43
2018-04-13T17:08:53.398Z,0.50
2018-04-13T17:11:23.451Z,0.20
2018-04-13T17:13:53.472Z,0.20
2018-04-13T17:16:23.552Z,0.20
2018-04-13T17:18:53.529Z,0.30
2018-04-13T17:21:23.649Z,0.40
2018-04-13T17:23:53.645Z,0.37
2018-04-13T17:26:23.761Z,0.40
2018-04-13T17:28:53.975Z,0.27
2018-04-13T17:31:24.094Z,0.30
2018-04-13T17:33:54.149Z,0.40
2018-04-13T17:36:25.397Z,0.20
2018-04-13T17:38:57.014Z,0.20
2018-04-13T17:41:28.280Z,0.30
2018-04-13T17:43:58.590Z,0.43
2018-04-13T17:46:29.598Z,0.40
2018-04-13T17:48:59.655Z,0.60
2018-04-13T17:51:29.713Z,0.10
2018-04-13T17:53:59.645Z,0.50
2018-04-13T17:56:29.640Z,0.60
2018-04-13T17:58:59.684Z,1.00
2018-04-13T18:01:29.733Z,0.80
2018-04-13T18:03:59.813Z,1.47
2018-04-13T18:06:29.882Z,1.80
2018-04-13T18:08:59.964Z,1.47
2018-04-13T18:11:30.083Z,1.00
2018-04-13T18:14:00.164Z,0.93
2018-04-13T18:16:30.204Z,0.77
2018-04-13T18:19:00.273Z,1.43
2018-04-13T18:21:31.367Z,1.10
2018-04-13T18:24:01.325Z,0.97
2018-04-13T18:26:31.243Z,0.83
2018-04-13T18:29:02.681Z,0.90
2018-04-13T18:31:33.761Z,1.10
2018-04-13T18:34:04.514Z,1.50
2018-04-13T18:36:34.533Z,1.13
2018-04-13T18:39:04.712Z,1.83
2018-04-13T18:41:34.885Z,0.80
2018-04-13T18:44:05.127Z,0.50
2018-04-13T18:46:35.203Z,0.50
2018-04-13T18:49:05.245Z,1.00
2018-04-13T18:51:36.127Z,0.90
2018-04-13T18:54:06.968Z,1.37
2018-04-13T18:56:37.769Z,1.80
2018-04-13T18:59:07.761Z,4.27
2018-04-13T19:01:38.715Z,1.30
2018-04-13T19:04:08.757Z,1.40
2018-04-13T19:06:39.593Z,1.17
2018-04-13T19:09:10.442Z,1.60
2018-04-13T19:11:41.355Z,1.30
2018-04-13T19:14:12.275Z,1.40
2018-04-13T19:16:42.330Z,1.10
2018-04-13T19:19:13.207Z,1.03
2018-04-13T19:21:44.454Z,1.00
2018-04-13T19:24:14.444Z,0.80
2018-04-13T19:26:45.146Z,0.90
2018-04-13T19:29:15.953Z,0.90
2018-04-13T19:31:46.009Z,0.93
2018-04-13T19:34:16.874Z,0.90
2018-04-13T19:36:47.873Z,1.00
2018-04-13T19:39:18.762Z,1.30
2018-04-13T19:41:48.767Z,1.93
2018-04-13T19:44:18.834Z,0.80
2018-04-13T19:46:49.720Z,1.00
2018-04-13T19:49:20.568Z,1.43
2018-04-13T19:51:50.677Z,1.60
2018-04-13T19:54:21.534Z,1.00
2018-04-13T19:56:51.612Z,0.90
2018-04-13T19:59:22.446Z,1.23
2018-04-13T20:01:53.521Z,1.27
2018-04-13T20:04:24.562Z,1.10
2018-04-13T20:06:55.685Z,0.83
2018-04-13T20:09:26.676Z,0.90
2018-04-13T20:11:56.721Z,0.87
2018-04-13T20:14:27.887Z,1.10
2018-04-13T20:16:58.005Z,1.13
2018-04-13T20:19:28.038Z,1.27
2018-04-13T20:21:59.754Z,1.10
2018-04-13T20:24:32.128Z,3.03
2018-04-13T20:27:03.126Z,1.47
2018-04-13T20:29:34.033Z,1.10
2018-04-13T20:32:04.046Z,1.30
2018-04-13T20:34:34.319Z,0.90
2018-04-13T20:37:05.370Z,5.03
2018-04-13T20:39:35.410Z,1.83
2018-04-13T20:42:05.490Z,2.50
2018-04-13T20:44:35.556Z,1.50
2018-04-13T20:47:06.734Z,1.50
2018-04-13T20:49:36.693Z,1.30
2018-04-13T20:52:06.651Z,1.30
2018-04-13T20:54:37.684Z,1.40
2018-04-13T20:57:07.921Z,1.20
2018-04-13T20:59:38.173Z,0.90
2018-04-13T21:02:08.206Z,1.20
2018-04-13T21:04:38.324Z,1.23
2018-04-13T21:07:08.397Z,0.90
2018-04-13T21:09:38.396Z,1.20
2018-04-13T21:12:08.608Z,1.57
2018-04-13T21:14:39.438Z,1.13
2018-04-13T21:17:10.283Z,1.30
2018-04-13T21:19:41.521Z,1.90
2018-04-13T21:22:12.402Z,1.47
2018-04-13T21:24:42.544Z,1.30
2018-04-13T21:27:12.641Z,1.10
2018-04-13T21:29:43.548Z,1.20
2018-04-13T21:32:14.340Z,1.20
2018-04-13T21:34:44.394Z,1.40
2018-04-13T21:37:15.251Z,1.50
2018-04-13T21:39:45.316Z,1.50
2018-04-13T21:42:15.641Z,1.43
2018-04-13T21:44:45.764Z,1.27
2018-04-13T21:47:15.833Z,1.17
2018-04-13T21:49:45.858Z,1.60
2018-04-13T21:52:15.973Z,1.57
2018-04-13T21:54:46.034Z,1.70
2018-04-13T21:57:16.000Z,6.60
2018-04-13T21:59:46.112Z,3.97
2018-04-13T22:02:16.800Z,2.37
2018-04-13T22:04:46.687Z,1.60
2018-04-13T22:07:16.673Z,1.47
2018-04-13T22:09:47.483Z,1.40
2018-04-13T22:12:36.114Z,1.53
2018-04-13T22:15:07.084Z,1.30
2018-04-13T22:17:37.897Z,1.13
2018-04-13T22:20:07.953Z,1.20
2018-04-13T22:22:39.089Z,1.60
2018-04-13T22:25:09.834Z,2.10
2018-04-13T22:27:40.763Z,1.70
2018-04-13T22:30:10.836Z,1.30
2018-04-13T22:32:40.842Z,1.50
2018-04-13T22:35:10.849Z,2.00
2018-04-13T22:37:40.881Z,1.40
2018-04-13T22:40:12.171Z,1.33
2018-04-13T22:42:42.273Z,1.20
2018-04-13T22:45:13.127Z,1.10
2018-04-13T22:47:43.151Z,1.20
2018-04-13T22:50:13.251Z,1.10
2018-04-13T22:52:44.122Z,1.30
2018-04-13T22:55:14.197Z,1.27
2018-04-13T22:57:45.005Z,1.10
2018-04-13T23:00:15.961Z,1.20
2018-04-13T23:02:46.034Z,0.90
2018-04-13T23:05:16.189Z,0.93
2018-04-13T23:07:46.993Z,1.00
2018-04-13T23:10:17.972Z,1.03
2018-04-13T23:12:48.836Z,1.10
2018-04-13T23:15:19.637Z,1.10
2018-04-13T23:17:49.724Z,1.00
2018-04-13T23:20:20.601Z,1.00
2018-04-13T23:22:51.481Z,1.20
2018-04-13T23:25:22.323Z,1.20
2018-04-13T23:27:52.410Z,1.30
2018-04-13T23:30:22.512Z,1.30
2018-04-13T23:32:53.634Z,1.07
2018-04-13T23:35:24.749Z,1.10
2018-04-13T23:37:55.850Z,1.27
2018-04-13T23:40:26.039Z,1.80
2018-04-13T23:42:56.921Z,1.87
2018-04-13T23:45:27.051Z,2.20
2018-04-13T23:47:57.122Z,1.30
2018-04-13T23:50:27.953Z,1.30
2018-04-13T23:52:58.762Z,1.30
2018-04-13T23:55:30.554Z,1.00
2018-04-13T23:58:01.677Z,1.10
